sensor_id;sensor_type;location;lat;lon;timestamp;P1;P2;P0
77538;PMS7003;67783;51.656;16.106;2023-11-21T00:01:41;0;0;0
77538;PMS7003;67783;51.656;16.106;2023-11-21T00:04:42;0;0;0
77538;PMS7003;67783;51.656;16.106;2023-11-21T00:07:47;0;0;0
77538;PMS7003;67783;51.656;16.106;2023-11-21T00:10:48;0;0;0
77538;PMS7003;67783;51.656;16.106;2023-11-21T00:13:52;0;0;0
77538;PMS7003;67783;51.656;16.106;2023-11-21T00:16:53;0;0;0
77538;PMS7003;67783;51.656;16.106;2023-11-21T00:19:55;0;0;0
77538;PMS7003;67783;51.656;16.106;2023-11-21T00:22:57;0;0;0
77538;PMS7003;67783;51.656;16.106;2023-11-21T00:26:00;0;0;0
77538;PMS7003;67783;51.656;16.106;2023-11-21T00:29:05;0;0;0
77538;PMS7003;67783;51.656;16.106;2023-11-21T00:32:09;0;0;0
77538;PMS7003;67783;51.656;16.106;2023-11-21T00:35:10;0;0;0
77538;PMS7003;67783;51.656;16.106;2023-11-21T00:38:12;0;0;0
77538;PMS7003;67783;51.656;16.106;2023-11-21T00:41:13;1;1;0
77538;PMS7003;67783;51.656;16.106;2023-11-21T00:44:26;0;0;0
77538;PMS7003;67783;51.656;16.106;2023-11-21T00:47:27;0;0;0
77538;PMS7003;67783;51.656;16.106;2023-11-21T00:50:29;0;0;0
77538;PMS7003;67783;51.656;16.106;2023-11-21T00:53:31;0;0;0
77538;PMS7003;67783;51.656;16.106;2023-11-21T00:56:32;0;0;0
77538;PMS7003;67783;51.656;16.106;2023-11-21T00:59:34;1;0;0
77538;PMS7003;67783;51.656;16.106;2023-11-21T01:02:36;3;0;0
77538;PMS7003;67783;51.656;16.106;2023-11-21T01:05:41;1;1;0
77538;PMS7003;67783;51.656;16.106;2023-11-21T01:08:43;0;0;0
77538;PMS7003;67783;51.656;16.106;2023-11-21T01:11:45;0;0;0
77538;PMS7003;67783;51.656;16.106;2023-11-21T01:14:47;0;0;0
77538;PMS7003;67783;51.656;16.106;2023-11-21T01:17:49;1;0;0
77538;PMS7003;67783;51.656;16.106;2023-11-21T01:20:50;0;0;0
77538;PMS7003;67783;51.656;16.106;2023-11-21T01:23:54;0;0;0
77538;PMS7003;67783;51.656;16.106;2023-11-21T01:26:59;0;0;0
77538;PMS7003;67783;51.656;16.106;2023-11-21T01:30:01;0;0;0
77538;PMS7003;67783;51.656;16.106;2023-11-21T01:33:03;0;0;0
77538;PMS7003;67783;51.656;16.106;2023-11-21T01:36:05;0;0;0
77538;PMS7003;67783;51.656;16.106;2023-11-21T01:39:07;0;0;0
77538;PMS7003;67783;51.656;16.106;2023-11-21T01:42:19;0;0;0
77538;PMS7003;67783;51.656;16.106;2023-11-21T01:45:20;0;0;0
77538;PMS7003;67783;51.656;16.106;2023-11-21T01:48:22;0;0;0
77538;PMS7003;67783;51.656;16.106;2023-11-21T01:51:24;0;0;0
77538;PMS7003;67783;51.656;16.106;2023-11-21T01:54:27;0;0;0
77538;PMS7003;67783;51.656;16.106;2023-11-21T01:57:40;0;0;0
77538;PMS7003;67783;51.656;16.106;2023-11-21T02:00:41;1;0;0
77538;PMS7003;67783;51.656;16.106;2023-11-21T02:03:44;0;0;0
77538;PMS7003;67783;51.656;16.106;2023-11-21T02:06:46;0;0;0
77538;PMS7003;67783;51.656;16.106;2023-11-21T02:09:47;0;0;0
77538;PMS7003;67783;51.656;16.106;2023-11-21T02:12:49;0;0;0
77538;PMS7003;67783;51.656;16.106;2023-11-21T02:15:51;0;0;0
77538;PMS7003;67783;51.656;16.106;2023-11-21T02:18:56;0;0;0
77538;PMS7003;67783;51.656;16.106;2023-11-21T02:21:59;0;0;0
77538;PMS7003;67783;51.656;16.106;2023-11-21T02:25:07;0;0;0
77538;PMS7003;67783;51.656;16.106;2023-11-21T02:28:09;0;0;0
77538;PMS7003;67783;51.656;16.106;2023-11-21T02:31:16;0;0;0
77538;PMS7003;67783;51.656;16.106;2023-11-21T02:34:21;0;0;0
77538;PMS7003;67783;51.656;16.106;2023-11-21T02:37:25;0;0;0
77538;PMS7003;67783;51.656;16.106;2023-11-21T02:40:26;0;0;0
77538;PMS7003;67783;51.656;16.106;2023-11-21T02:43:28;0;0;0
77538;PMS7003;67783;51.656;16.106;2023-11-21T02:46:30;0;0;0
77538;PMS7003;67783;51.656;16.106;2023-11-21T02:49:41;0;0;0
77538;PMS7003;67783;51.656;16.106;2023-11-21T02:52:42;0;0;0
77538;PMS7003;67783;51.656;16.106;2023-11-21T02:55:44;0;0;0
77538;PMS7003;67783;51.656;16.106;2023-11-21T02:58:46;1;0;0
77538;PMS7003;67783;51.656;16.106;2023-11-21T03:01:48;0;0;0
77538;PMS7003;67783;51.656;16.106;2023-11-21T03:04:50;0;0;0
77538;PMS7003;67783;51.656;16.106;2023-11-21T03:07:52;0;0;0
77538;PMS7003;67783;51.656;16.106;2023-11-21T03:10:57;0;0;0
77538;PMS7003;67783;51.656;16.106;2023-11-21T03:13:59;0;0;0
77538;PMS7003;67783;51.656;16.106;2023-11-21T03:17:00;0;0;0
77538;PMS7003;67783;51.656;16.106;2023-11-21T03:20:03;0;0;0
77538;PMS7003;67783;51.656;16.106;2023-11-21T03:23:07;1;0;0
77538;PMS7003;67783;51.656;16.106;2023-11-21T03:26:17;0;0;0
77538;PMS7003;67783;51.656;16.106;2023-11-21T03:29:19;0;0;0
77538;PMS7003;67783;51.656;16.106;2023-11-21T03:32:20;0;0;0
77538;PMS7003;67783;51.656;16.106;2023-11-21T03:35:22;0;0;0
77538;PMS7003;67783;51.656;16.106;2023-11-21T03:38:25;0;0;0
77538;PMS7003;67783;51.656;16.106;2023-11-21T03:41:26;0;0;0
77538;PMS7003;67783;51.656;16.106;2023-11-21T03:44:28;0;0;0
77538;PMS7003;67783;51.656;16.106;2023-11-21T03:47:33;0;0;0
77538;PMS7003;67783;51.656;16.106;2023-11-21T03:50:35;0;0;0
77538;PMS7003;67783;51.656;16.106;2023-11-21T03:53:37;0;0;0
77538;PMS7003;67783;51.656;16.106;2023-11-21T03:56:38;1;1;0
77538;PMS7003;67783;51.656;16.106;2023-11-21T03:59:40;2;2;2
77538;PMS7003;67783;51.656;16.106;2023-11-21T04:02:42;1;1;0
77538;PMS7003;67783;51.656;16.106;2023-11-21T04:05:44;2;2;1
77538;PMS7003;67783;51.656;16.106;2023-11-21T04:08:49;4;3;2
77538;PMS7003;67783;51.656;16.106;2023-11-21T04:11:51;3;3;2
77538;PMS7003;67783;51.656;16.106;2023-11-21T04:14:53;6;2;2
77538;PMS7003;67783;51.656;16.106;2023-11-21T04:17:55;2;2;1
77538;PMS7003;67783;51.656;16.106;2023-11-21T04:20:57;2;1;1
77538;PMS7003;67783;51.656;16.106;2023-11-21T04:24:09;0;0;0
77538;PMS7003;67783;51.656;16.106;2023-11-21T04:27:11;1;1;1
77538;PMS7003;67783;51.656;16.106;2023-11-21T04:30:15;1;1;1
77538;PMS7003;67783;51.656;16.106;2023-11-21T04:33:16;1;0;0
77538;PMS7003;67783;51.656;16.106;2023-11-21T04:36:18;1;1;0
77538;PMS7003;67783;51.656;16.106;2023-11-21T04:39:30;2;1;0
77538;PMS7003;67783;51.656;16.106;2023-11-21T04:42:33;2;0;0
77538;PMS7003;67783;51.656;16.106;2023-11-21T04:45:38;1;1;0
77538;PMS7003;67783;51.656;16.106;2023-11-21T04:48:41;0;0;0
77538;PMS7003;67783;51.656;16.106;2023-11-21T04:51:44;1;1;1
77538;PMS7003;67783;51.656;16.106;2023-11-21T04:54:51;3;0;0
77538;PMS7003;67783;51.656;16.106;2023-11-21T04:57:55;0;0;0
77538;PMS7003;67783;51.656;16.106;2023-11-21T05:00:57;1;1;0
77538;PMS7003;67783;51.656;16.106;2023-11-21T05:03:58;3;0;0
77538;PMS7003;67783;51.656;16.106;2023-11-21T05:07:00;1;1;0
77538;PMS7003;67783;51.656;16.106;2023-11-21T05:10:11;1;1;1
77538;PMS7003;67783;51.656;16.106;2023-11-21T05:13:15;0;0;0
77538;PMS7003;67783;51.656;16.106;2023-11-21T05:16:19;1;1;0
77538;PMS7003;67783;51.656;16.106;2023-11-21T05:19:21;2;2;1
77538;PMS7003;67783;51.656;16.106;2023-11-21T05:22:23;0;0;0
77538;PMS7003;67783;51.656;16.106;2023-11-21T05:25:32;3;2;2
77538;PMS7003;67783;51.656;16.106;2023-11-21T05:28:34;2;2;1
77538;PMS7003;67783;51.656;16.106;2023-11-21T05:31:35;1;1;1
77538;PMS7003;67783;51.656;16.106;2023-11-21T05:34:38;2;2;1
77538;PMS7003;67783;51.656;16.106;2023-11-21T05:37:40;1;1;1
77538;PMS7003;67783;51.656;16.106;2023-11-21T05:40:41;2;2;0
77538;PMS7003;67783;51.656;16.106;2023-11-21T05:43:44;1;1;0
77538;PMS7003;67783;51.656;16.106;2023-11-21T05:46:49;2;1;1
77538;PMS7003;67783;51.656;16.106;2023-11-21T05:49:51;2;1;1
77538;PMS7003;67783;51.656;16.106;2023-11-21T05:52:53;2;2;1
77538;PMS7003;67783;51.656;16.106;2023-11-21T05:55:54;5;1;1
77538;PMS7003;67783;51.656;16.106;2023-11-21T05:58:56;1;1;1
77538;PMS7003;67783;51.656;16.106;2023-11-21T06:01:57;2;1;1
77538;PMS7003;67783;51.656;16.106;2023-11-21T06:04:59;1;1;0
77538;PMS7003;67783;51.656;16.106;2023-11-21T06:08:04;1;1;1
77538;PMS7003;67783;51.656;16.106;2023-11-21T06:11:08;2;2;1
77538;PMS7003;67783;51.656;16.106;2023-11-21T06:14:12;2;1;1
77538;PMS7003;67783;51.656;16.106;2023-11-21T06:17:13;3;2;1
77538;PMS7003;67783;51.656;16.106;2023-11-21T06:20:15;0;0;0
77538;PMS7003;67783;51.656;16.106;2023-11-21T06:23:25;2;1;1
77538;PMS7003;67783;51.656;16.106;2023-11-21T06:26:26;1;1;0
77538;PMS7003;67783;51.656;16.106;2023-11-21T06:29:29;1;1;1
77538;PMS7003;67783;51.656;16.106;2023-11-21T06:32:30;2;2;1
77538;PMS7003;67783;51.656;16.106;2023-11-21T06:35:32;1;1;1
77538;PMS7003;67783;51.656;16.106;2023-11-21T06:38:45;2;2;2
77538;PMS7003;67783;51.656;16.106;2023-11-21T06:41:47;1;1;1
77538;PMS7003;67783;51.656;16.106;2023-11-21T06:44:50;2;1;1
77538;PMS7003;67783;51.656;16.106;2023-11-21T06:47:58;1;1;1
77538;PMS7003;67783;51.656;16.106;2023-11-21T06:50:59;2;1;1
77538;PMS7003;67783;51.656;16.106;2023-11-21T06:54:06;2;2;1
77538;PMS7003;67783;51.656;16.106;2023-11-21T06:57:08;2;2;2
77538;PMS7003;67783;51.656;16.106;2023-11-21T07:00:09;2;1;1
77538;PMS7003;67783;51.656;16.106;2023-11-21T07:05:08;1;1;1
77538;PMS7003;67783;51.656;16.106;2023-11-21T07:08:10;4;1;0
77538;PMS7003;67783;51.656;16.106;2023-11-21T07:11:13;0;0;0
77538;PMS7003;67783;51.656;16.106;2023-11-21T07:14:15;3;1;1
77538;PMS7003;67783;51.656;16.106;2023-11-21T07:17:29;1;1;1
77538;PMS7003;67783;51.656;16.106;2023-11-21T07:20:30;1;1;1
77538;PMS7003;67783;51.656;16.106;2023-11-21T07:23:32;1;1;0
77538;PMS7003;67783;51.656;16.106;2023-11-21T07:26:33;1;1;1
77538;PMS7003;67783;51.656;16.106;2023-11-21T07:29:36;1;1;1
77538;PMS7003;67783;51.656;16.106;2023-11-21T07:32:37;1;1;0
77538;PMS7003;67783;51.656;16.106;2023-11-21T07:35:40;3;1;1
77538;PMS7003;67783;51.656;16.106;2023-11-21T07:38:45;1;0;0
77538;PMS7003;67783;51.656;16.106;2023-11-21T07:41:48;2;2;1
77538;PMS7003;67783;51.656;16.106;2023-11-21T07:44:50;1;0;0
77538;PMS7003;67783;51.656;16.106;2023-11-21T07:47:55;1;1;1
77538;PMS7003;67783;51.656;16.106;2023-11-21T07:50:57;3;2;2
77538;PMS7003;67783;51.656;16.106;2023-11-21T07:54:06;4;4;2
77538;PMS7003;67783;51.656;16.106;2023-11-21T07:57:07;7;6;4
77538;PMS7003;67783;51.656;16.106;2023-11-21T08:00:09;6;5;4
77538;PMS7003;67783;51.656;16.106;2023-11-21T08:03:13;5;5;3
77538;PMS7003;67783;51.656;16.106;2023-11-21T08:06:15;9;5;3
77538;PMS7003;67783;51.656;16.106;2023-11-21T08:09:26;4;3;3
77538;PMS7003;67783;51.656;16.106;2023-11-21T08:12:28;6;5;4
77538;PMS7003;67783;51.656;16.106;2023-11-21T08:15:29;5;5;4
77538;PMS7003;67783;51.656;16.106;2023-11-21T08:18:34;4;3;2
77538;PMS7003;67783;51.656;16.106;2023-11-21T08:21:36;3;3;2
77538;PMS7003;67783;51.656;16.106;2023-11-21T08:24:47;5;5;4
77538;PMS7003;67783;51.656;16.106;2023-11-21T08:27:48;4;4;3
77538;PMS7003;67783;51.656;16.106;2023-11-21T08:30:50;6;6;4
77538;PMS7003;67783;51.656;16.106;2023-11-21T08:33:51;8;6;4
77538;PMS7003;67783;51.656;16.106;2023-11-21T08:36:56;10;8;5
77538;PMS7003;67783;51.656;16.106;2023-11-21T08:40:08;4;4;3
77538;PMS7003;67783;51.656;16.106;2023-11-21T08:43:17;11;10;6
77538;PMS7003;67783;51.656;16.106;2023-11-21T08:46:20;9;7;4
77538;PMS7003;67783;51.656;16.106;2023-11-21T08:49:22;6;6;4
77538;PMS7003;67783;51.656;16.106;2023-11-21T08:52:26;7;6;5
77538;PMS7003;67783;51.656;16.106;2023-11-21T08:55:31;8;8;5
77538;PMS7003;67783;51.656;16.106;2023-11-21T08:58:37;8;7;4
77538;PMS7003;67783;51.656;16.106;2023-11-21T09:01:39;9;8;5
77538;PMS7003;67783;51.656;16.106;2023-11-21T09:04:41;7;7;5
77538;PMS7003;67783;51.656;16.106;2023-11-21T09:07:42;8;7;4
77538;PMS7003;67783;51.656;16.106;2023-11-21T09:10:52;9;7;5
77538;PMS7003;67783;51.656;16.106;2023-11-21T09:13:53;6;4;3
77538;PMS7003;67783;51.656;16.106;2023-11-21T09:16:55;7;6;4
77538;PMS7003;67783;51.656;16.106;2023-11-21T09:19:57;7;7;5
77538;PMS7003;67783;51.656;16.106;2023-11-21T09:22:59;7;6;4
77538;PMS7003;67783;51.656;16.106;2023-11-21T09:26:00;6;5;4
77538;PMS7003;67783;51.656;16.106;2023-11-21T09:29:02;7;7;6
77538;PMS7003;67783;51.656;16.106;2023-11-21T09:32:07;5;5;4
77538;PMS7003;67783;51.656;16.106;2023-11-21T09:35:11;6;5;3
77538;PMS7003;67783;51.656;16.106;2023-11-21T09:38:14;9;4;3
77538;PMS7003;67783;51.656;16.106;2023-11-21T09:41:21;10;5;3
77538;PMS7003;67783;51.656;16.106;2023-11-21T09:44:31;4;4;2
77538;PMS7003;67783;51.656;16.106;2023-11-21T09:47:41;4;4;2
77538;PMS7003;67783;51.656;16.106;2023-11-21T09:50:44;3;2;1
77538;PMS7003;67783;51.656;16.106;2023-11-21T09:53:49;3;3;2
77538;PMS7003;67783;51.656;16.106;2023-11-21T09:56:59;2;2;2
77538;PMS7003;67783;51.656;16.106;2023-11-21T10:00:01;3;3;2
77538;PMS7003;67783;51.656;16.106;2023-11-21T10:03:11;3;2;2
77538;PMS7003;67783;51.656;16.106;2023-11-21T10:06:14;3;2;2
77538;PMS7003;67783;51.656;16.106;2023-11-21T10:09:17;3;1;1
77538;PMS7003;67783;51.656;16.106;2023-11-21T10:12:22;3;1;1
77538;PMS7003;67783;51.656;16.106;2023-11-21T10:15:26;1;1;1
77538;PMS7003;67783;51.656;16.106;2023-11-21T10:18:28;2;2;1
77538;PMS7003;67783;51.656;16.106;2023-11-21T10:21:30;1;1;1
77538;PMS7003;67783;51.656;16.106;2023-11-21T10:24:35;1;1;1
77538;PMS7003;67783;51.656;16.106;2023-11-21T10:27:43;1;1;1
77538;PMS7003;67783;51.656;16.106;2023-11-21T10:30:52;1;1;1
77538;PMS7003;67783;51.656;16.106;2023-11-21T10:33:54;2;1;1
77538;PMS7003;67783;51.656;16.106;2023-11-21T10:37:12;1;1;1
77538;PMS7003;67783;51.656;16.106;2023-11-21T10:40:16;2;1;1
77538;PMS7003;67783;51.656;16.106;2023-11-21T10:43:18;1;1;1
77538;PMS7003;67783;51.656;16.106;2023-11-21T10:46:19;1;1;0
77538;PMS7003;67783;51.656;16.106;2023-11-21T10:49:27;3;2;1
77538;PMS7003;67783;51.656;16.106;2023-11-21T10:52:30;2;2;1
77538;PMS7003;67783;51.656;16.106;2023-11-21T10:55:34;7;1;1
77538;PMS7003;67783;51.656;16.106;2023-11-21T10:58:36;1;1;1
77538;PMS7003;67783;51.656;16.106;2023-11-21T11:01:39;2;1;0
77538;PMS7003;67783;51.656;16.106;2023-11-21T11:04:44;6;3;2
77538;PMS7003;67783;51.656;16.106;2023-11-21T11:07:51;5;5;3
77538;PMS7003;67783;51.656;16.106;2023-11-21T11:11:01;7;4;2
77538;PMS7003;67783;51.656;16.106;2023-11-21T11:14:03;6;4;2
77538;PMS7003;67783;51.656;16.106;2023-11-21T11:17:04;2;2;2
77538;PMS7003;67783;51.656;16.106;2023-11-21T11:20:10;3;3;1
77538;PMS7003;67783;51.656;16.106;2023-11-21T11:26:35;2;2;1
77538;PMS7003;67783;51.656;16.106;2023-11-21T11:29:50;8;5;4
77538;PMS7003;67783;51.656;16.106;2023-11-21T11:39:38;3;3;2
77538;PMS7003;67783;51.656;16.106;2023-11-21T11:45:59;4;4;2
77538;PMS7003;67783;51.656;16.106;2023-11-21T11:49:04;5;3;2
77538;PMS7003;67783;51.656;16.106;2023-11-21T11:55:20;7;4;2
77538;PMS7003;67783;51.656;16.106;2023-11-21T11:58:24;5;3;2
77538;PMS7003;67783;51.656;16.106;2023-11-21T12:01:35;5;5;4
77538;PMS7003;67783;51.656;16.106;2023-11-21T12:04:42;7;5;4
77538;PMS7003;67783;51.656;16.106;2023-11-21T12:07:45;5;4;3
77538;PMS7003;67783;51.656;16.106;2023-11-21T12:10:48;4;4;2
77538;PMS7003;67783;51.656;16.106;2023-11-21T12:13:54;5;5;4
77538;PMS7003;67783;51.656;16.106;2023-11-21T12:16:56;4;4;3
77538;PMS7003;67783;51.656;16.106;2023-11-21T12:20:03;7;6;4
77538;PMS7003;67783;51.656;16.106;2023-11-21T12:23:11;5;4;3
77538;PMS7003;67783;51.656;16.106;2023-11-21T12:26:17;4;4;3
77538;PMS7003;67783;51.656;16.106;2023-11-21T12:29:30;5;5;4
77538;PMS7003;67783;51.656;16.106;2023-11-21T12:32:33;3;3;2
77538;PMS7003;67783;51.656;16.106;2023-11-21T12:35:37;3;3;3
77538;PMS7003;67783;51.656;16.106;2023-11-21T12:38:39;6;3;2
77538;PMS7003;67783;51.656;16.106;2023-11-21T12:41:40;7;7;4
77538;PMS7003;67783;51.656;16.106;2023-11-21T12:48:05;4;4;3
77538;PMS7003;67783;51.656;16.106;2023-11-21T12:51:12;5;4;4
77538;PMS7003;67783;51.656;16.106;2023-11-21T12:54:17;3;2;2
77538;PMS7003;67783;51.656;16.106;2023-11-21T12:57:20;3;3;2
77538;PMS7003;67783;51.656;16.106;2023-11-21T13:00:31;6;4;3
77538;PMS7003;67783;51.656;16.106;2023-11-21T13:03:30;2;2;2
77538;PMS7003;67783;51.656;16.106;2023-11-21T13:06:34;5;5;4
77538;PMS7003;67783;51.656;16.106;2023-11-21T13:09:41;5;5;5
77538;PMS7003;67783;51.656;16.106;2023-11-21T13:12:43;4;4;3
77538;PMS7003;67783;51.656;16.106;2023-11-21T13:15:49;5;3;2
77538;PMS7003;67783;51.656;16.106;2023-11-21T13:18:51;6;4;2
77538;PMS7003;67783;51.656;16.106;2023-11-21T13:21:53;5;4;3
77538;PMS7003;67783;51.656;16.106;2023-11-21T13:25:00;5;4;4
77538;PMS7003;67783;51.656;16.106;2023-11-21T13:28:08;6;5;3
77538;PMS7003;67783;51.656;16.106;2023-11-21T13:31:13;8;6;5
77538;PMS7003;67783;51.656;16.106;2023-11-21T13:34:27;5;4;2
77538;PMS7003;67783;51.656;16.106;2023-11-21T13:37:28;8;6;4
77538;PMS7003;67783;51.656;16.106;2023-11-21T13:40:33;4;4;3
77538;PMS7003;67783;51.656;16.106;2023-11-21T13:43:53;5;4;3
77538;PMS7003;67783;51.656;16.106;2023-11-21T13:47:05;6;5;4
77538;PMS7003;67783;51.656;16.106;2023-11-21T13:50:07;10;7;5
77538;PMS7003;67783;51.656;16.106;2023-11-21T13:53:20;4;4;3
77538;PMS7003;67783;51.656;16.106;2023-11-21T13:56:25;4;4;1
77538;PMS7003;67783;51.656;16.106;2023-11-21T13:59:30;8;6;4
77538;PMS7003;67783;51.656;16.106;2023-11-21T14:02:33;5;5;3
77538;PMS7003;67783;51.656;16.106;2023-11-21T14:05:43;7;7;4
77538;PMS7003;67783;51.656;16.106;2023-11-21T14:08:51;4;4;3
77538;PMS7003;67783;51.656;16.106;2023-11-21T14:11:57;6;6;3
77538;PMS7003;67783;51.656;16.106;2023-11-21T14:15:00;6;6;4
77538;PMS7003;67783;51.656;16.106;2023-11-21T14:18:14;11;4;3
77538;PMS7003;67783;51.656;16.106;2023-11-21T14:21:21;3;3;3
77538;PMS7003;67783;51.656;16.106;2023-11-21T14:24:23;5;4;3
77538;PMS7003;67783;51.656;16.106;2023-11-21T14:27:26;7;5;3
77538;PMS7003;67783;51.656;16.106;2023-11-21T14:30:29;3;2;1
77538;PMS7003;67783;51.656;16.106;2023-11-21T14:33:36;6;6;3
77538;PMS7003;67783;51.656;16.106;2023-11-21T14:36:38;8;6;4
77538;PMS7003;67783;51.656;16.106;2023-11-21T14:39:44;10;6;4
77538;PMS7003;67783;51.656;16.106;2023-11-21T14:43:02;6;4;2
77538;PMS7003;67783;51.656;16.106;2023-11-21T14:46:07;10;6;4
77538;PMS7003;67783;51.656;16.106;2023-11-21T14:49:16;6;5;4
77538;PMS7003;67783;51.656;16.106;2023-11-21T14:52:28;4;3;2
77538;PMS7003;67783;51.656;16.106;2023-11-21T14:55:38;6;5;4
77538;PMS7003;67783;51.656;16.106;2023-11-21T14:58:57;7;6;5
77538;PMS7003;67783;51.656;16.106;2023-11-21T15:02:08;14;8;5
77538;PMS7003;67783;51.656;16.106;2023-11-21T15:05:16;7;4;3
77538;PMS7003;67783;51.656;16.106;2023-11-21T15:08:21;7;6;4
77538;PMS7003;67783;51.656;16.106;2023-11-21T15:11:32;7;6;4
77538;PMS7003;67783;51.656;16.106;2023-11-21T15:14:34;6;5;4
77538;PMS7003;67783;51.656;16.106;2023-11-21T15:17:37;6;6;4
77538;PMS7003;67783;51.656;16.106;2023-11-21T15:20:43;10;5;4
77538;PMS7003;67783;51.656;16.106;2023-11-21T15:23:45;5;4;1
77538;PMS7003;67783;51.656;16.106;2023-11-21T15:26:50;10;9;6
77538;PMS7003;67783;51.656;16.106;2023-11-21T15:29:51;14;11;8
77538;PMS7003;67783;51.656;16.106;2023-11-21T15:32:54;6;5;4
77538;PMS7003;67783;51.656;16.106;2023-11-21T15:35:56;5;3;2
77538;PMS7003;67783;51.656;16.106;2023-11-21T15:38:59;2;2;2
77538;PMS7003;67783;51.656;16.106;2023-11-21T15:42:10;3;3;2
77538;PMS7003;67783;51.656;16.106;2023-11-21T15:45:13;6;6;3
77538;PMS7003;67783;51.656;16.106;2023-11-21T15:48:15;6;6;5
77538;PMS7003;67783;51.656;16.106;2023-11-21T15:51:17;7;4;3
77538;PMS7003;67783;51.656;16.106;2023-11-21T15:54:20;4;3;3
77538;PMS7003;67783;51.656;16.106;2023-11-21T15:57:31;13;5;3
77538;PMS7003;67783;51.656;16.106;2023-11-21T16:00:33;5;5;5
77538;PMS7003;67783;51.656;16.106;2023-11-21T16:03:35;4;4;4
77538;PMS7003;67783;51.656;16.106;2023-11-21T16:06:37;5;3;2
77538;PMS7003;67783;51.656;16.106;2023-11-21T16:09:42;5;5;4
77538;PMS7003;67783;51.656;16.106;2023-11-21T16:12:52;4;4;2
77538;PMS7003;67783;51.656;16.106;2023-11-21T16:15:53;5;4;3
77538;PMS7003;67783;51.656;16.106;2023-11-21T16:18:55;6;6;4
77538;PMS7003;67783;51.656;16.106;2023-11-21T16:21:57;6;5;2
77538;PMS7003;67783;51.656;16.106;2023-11-21T16:24:59;4;3;2
77538;PMS7003;67783;51.656;16.106;2023-11-21T16:28:12;7;5;3
77538;PMS7003;67783;51.656;16.106;2023-11-21T16:31:21;3;3;1
77538;PMS7003;67783;51.656;16.106;2023-11-21T16:34:24;2;2;1
77538;PMS7003;67783;51.656;16.106;2023-11-21T16:37:26;6;5;4
77538;PMS7003;67783;51.656;16.106;2023-11-21T16:40:29;5;2;1
77538;PMS7003;67783;51.656;16.106;2023-11-21T16:43:34;4;4;3
77538;PMS7003;67783;51.656;16.106;2023-11-21T16:46:36;2;2;2
77538;PMS7003;67783;51.656;16.106;2023-11-21T16:49:37;4;4;3
77538;PMS7003;67783;51.656;16.106;2023-11-21T16:52:42;3;3;3
77538;PMS7003;67783;51.656;16.106;2023-11-21T16:55:44;5;5;3
77538;PMS7003;67783;51.656;16.106;2023-11-21T16:58:55;9;4;2
77538;PMS7003;67783;51.656;16.106;2023-11-21T17:01:56;5;5;5
77538;PMS7003;67783;51.656;16.106;2023-11-21T17:04:58;9;5;4
77538;PMS7003;67783;51.656;16.106;2023-11-21T17:07:59;5;4;2
77538;PMS7003;67783;51.656;16.106;2023-11-21T17:11:01;10;6;4
77538;PMS7003;67783;51.656;16.106;2023-11-21T17:14:15;6;3;2
77538;PMS7003;67783;51.656;16.106;2023-11-21T17:17:18;4;4;3
77538;PMS7003;67783;51.656;16.106;2023-11-21T17:20:20;7;6;4
77538;PMS7003;67783;51.656;16.106;2023-11-21T17:23:21;5;5;4
77538;PMS7003;67783;51.656;16.106;2023-11-21T17:26:23;5;3;2
77538;PMS7003;67783;51.656;16.106;2023-11-21T17:29:24;5;4;2
77538;PMS7003;67783;51.656;16.106;2023-11-21T17:32:27;5;4;2
77538;PMS7003;67783;51.656;16.106;2023-11-21T17:35:33;6;4;3
77538;PMS7003;67783;51.656;16.106;2023-11-21T17:38:35;4;3;3
77538;PMS7003;67783;51.656;16.106;2023-11-21T17:41:36;7;5;4
77538;PMS7003;67783;51.656;16.106;2023-11-21T17:44:38;7;5;3
77538;PMS7003;67783;51.656;16.106;2023-11-21T17:47:39;7;4;3
77538;PMS7003;67783;51.656;16.106;2023-11-21T17:50:42;5;4;3
77538;PMS7003;67783;51.656;16.106;2023-11-21T17:53:43;5;4;2
77538;PMS7003;67783;51.656;16.106;2023-11-21T17:56:48;4;4;4
77538;PMS7003;67783;51.656;16.106;2023-11-21T17:59:50;10;5;3
77538;PMS7003;67783;51.656;16.106;2023-11-21T18:02:55;7;4;3
77538;PMS7003;67783;51.656;16.106;2023-11-21T18:05:57;11;7;3
77538;PMS7003;67783;51.656;16.106;2023-11-21T18:08:59;12;7;4
77538;PMS7003;67783;51.656;16.106;2023-11-21T18:12:09;5;5;3
77538;PMS7003;67783;51.656;16.106;2023-11-21T18:15:10;5;5;3
77538;PMS7003;67783;51.656;16.106;2023-11-21T18:18:14;7;6;4
77538;PMS7003;67783;51.656;16.106;2023-11-21T18:21:16;9;9;7
77538;PMS7003;67783;51.656;16.106;2023-11-21T18:24:18;10;6;4
77538;PMS7003;67783;51.656;16.106;2023-11-21T18:27:29;9;8;5
77538;PMS7003;67783;51.656;16.106;2023-11-21T18:30:31;9;6;4
77538;PMS7003;67783;51.656;16.106;2023-11-21T18:33:33;9;7;5
77538;PMS7003;67783;51.656;16.106;2023-11-21T18:36:35;8;7;5
77538;PMS7003;67783;51.656;16.106;2023-11-21T18:39:37;6;6;4
77538;PMS7003;67783;51.656;16.106;2023-11-21T18:42:39;13;11;7
77538;PMS7003;67783;51.656;16.106;2023-11-21T18:45:40;9;7;5
77538;PMS7003;67783;51.656;16.106;2023-11-21T18:48:45;7;7;4
77538;PMS7003;67783;51.656;16.106;2023-11-21T18:51:49;16;14;7
77538;PMS7003;67783;51.656;16.106;2023-11-21T18:54:51;9;7;5
77538;PMS7003;67783;51.656;16.106;2023-11-21T18:57:52;6;6;4
77538;PMS7003;67783;51.656;16.106;2023-11-21T19:00:55;8;5;4
77538;PMS7003;67783;51.656;16.106;2023-11-21T19:04:06;12;10;6
77538;PMS7003;67783;51.656;16.106;2023-11-21T19:07:07;7;6;5
77538;PMS7003;67783;51.656;16.106;2023-11-21T19:10:10;9;8;5
77538;PMS7003;67783;51.656;16.106;2023-11-21T19:13:11;6;5;3
77538;PMS7003;67783;51.656;16.106;2023-11-21T19:16:13;9;9;6
77538;PMS7003;67783;51.656;16.106;2023-11-21T19:19:16;10;8;6
77538;PMS7003;67783;51.656;16.106;2023-11-21T19:22:20;11;10;7
77538;PMS7003;67783;51.656;16.106;2023-11-21T19:25:25;9;8;6
77538;PMS7003;67783;51.656;16.106;2023-11-21T19:28:27;11;7;4
77538;PMS7003;67783;51.656;16.106;2023-11-21T19:31:29;10;8;6
77538;PMS7003;67783;51.656;16.106;2023-11-21T19:34:30;5;4;3
77538;PMS7003;67783;51.656;16.106;2023-11-21T19:37:32;9;7;5
77538;PMS7003;67783;51.656;16.106;2023-11-21T19:40:34;10;9;6
77538;PMS7003;67783;51.656;16.106;2023-11-21T19:43:35;7;7;5
77538;PMS7003;67783;51.656;16.106;2023-11-21T19:46:40;5;2;2
77538;PMS7003;67783;51.656;16.106;2023-11-21T19:49:42;8;8;6
77538;PMS7003;67783;51.656;16.106;2023-11-21T19:52:43;7;6;5
77538;PMS7003;67783;51.656;16.106;2023-11-21T19:55:46;7;7;5
77538;PMS7003;67783;51.656;16.106;2023-11-21T19:58:48;11;9;6
77538;PMS7003;67783;51.656;16.106;2023-11-21T20:01:50;10;7;4
77538;PMS7003;67783;51.656;16.106;2023-11-21T20:04:51;7;6;4
77538;PMS7003;67783;51.656;16.106;2023-11-21T20:07:56;10;8;5
77538;PMS7003;67783;51.656;16.106;2023-11-21T20:10:58;13;10;7
77538;PMS7003;67783;51.656;16.106;2023-11-21T20:13:59;9;7;6
77538;PMS7003;67783;51.656;16.106;2023-11-21T20:17:01;7;7;6
77538;PMS7003;67783;51.656;16.106;2023-11-21T20:20:04;10;7;4
77538;PMS7003;67783;51.656;16.106;2023-11-21T20:23:06;7;7;5
77538;PMS7003;67783;51.656;16.106;2023-11-21T20:26:08;6;5;3
77538;PMS7003;67783;51.656;16.106;2023-11-21T20:29:13;7;7;5
77538;PMS7003;67783;51.656;16.106;2023-11-21T20:32:15;10;9;7
77538;PMS7003;67783;51.656;16.106;2023-11-21T20:35:17;7;5;4
77538;PMS7003;67783;51.656;16.106;2023-11-21T20:38:22;10;6;4
77538;PMS7003;67783;51.656;16.106;2023-11-21T20:41:25;9;5;3